createdAt,value
2022-12-08T00:00:16.605Z,57.35
2022-12-08T00:03:30.294Z,57.40
2022-12-08T00:07:04.149Z,57.43
2022-12-08T00:10:48.017Z,57.33
2022-12-08T00:13:55.709Z,57.34
2022-12-08T00:17:13.979Z,57.40
2022-12-08T00:20:30.459Z,57.57
2022-12-08T00:23:49.532Z,57.69
2022-12-08T00:27:08.490Z,57.44
2022-12-08T00:30:30.037Z,57.31
2022-12-08T00:33:44.169Z,57.04
2022-12-08T00:37:03.643Z,57.08
2022-12-08T00:40:20.247Z,56.88
2022-12-08T00:43:34.396Z,56.57
2022-12-08T00:46:49.075Z,56.34
2022-12-08T00:50:09.982Z,56.23
2022-12-08T00:53:24.383Z,56.21
2022-12-08T00:56:36.344Z,56.35
2022-12-08T00:59:51.320Z,56.26
2022-12-08T01:03:08.164Z,56.24
2022-12-08T01:06:25.248Z,56.48
2022-12-08T01:09:40.734Z,56.39
2022-12-08T01:12:55.896Z,56.50
2022-12-08T01:16:12.752Z,56.33
2022-12-08T01:19:30.356Z,56.37
2022-12-08T01:22:42.458Z,56.42
2022-12-08T01:26:01.424Z,56.19
2022-12-08T01:29:15.266Z,56.12
2022-12-08T01:32:29.509Z,55.86
2022-12-08T01:35:46.327Z,55.94
2022-12-08T01:39:00.886Z,55.49
2022-12-08T01:42:35.222Z,55.16
2022-12-08T01:45:53.027Z,54.67
2022-12-08T01:49:15.809Z,54.82
2022-12-08T01:52:53.213Z,55.03
2022-12-08T01:56:23.745Z,55.30
2022-12-08T01:59:47.008Z,55.39
2022-12-08T02:03:01.781Z,55.29
2022-12-08T02:06:20.334Z,55.37
2022-12-08T02:09:36.329Z,55.52
2022-12-08T02:12:56.447Z,55.21
2022-12-08T02:16:20.983Z,54.83
2022-12-08T02:19:52.782Z,54.74
2022-12-08T02:23:31.212Z,54.12
2022-12-08T02:27:02.547Z,53.71
2022-12-08T02:30:24.589Z,53.29
2022-12-08T02:34:05.578Z,53.20
2022-12-08T02:37:32.629Z,53.30
2022-12-08T02:41:20.943Z,53.20
2022-12-08T02:44:44.817Z,53.58
2022-12-08T02:47:48.794Z,53.84
2022-12-08T02:50:52.725Z,53.95
2022-12-08T02:53:56.666Z,54.05
2022-12-08T02:57:44.452Z,54.15
2022-12-08T03:01:18.285Z,54.16
2022-12-08T03:04:40.370Z,54.48
2022-12-08T03:07:50.875Z,54.20
2022-12-08T03:10:59.384Z,53.48
2022-12-08T03:14:06.011Z,52.80
2022-12-08T03:17:10.011Z,52.24
2022-12-08T03:20:18.575Z,52.20
2022-12-08T03:23:23.466Z,52.06
2022-12-08T03:26:32.991Z,52.51
2022-12-08T03:29:36.637Z,52.17
2022-12-08T03:32:53.372Z,51.85
2022-12-08T03:35:59.859Z,51.79
2022-12-08T03:39:03.542Z,51.65
2022-12-08T03:42:07.678Z,51.62
2022-12-08T03:45:11.767Z,52.04
2022-12-08T03:48:15.055Z,52.32
2022-12-08T03:51:19.074Z,52.47
2022-12-08T03:54:22.707Z,52.20
2022-12-08T03:57:26.693Z,52.52
2022-12-08T04:00:30.164Z,52.50
2022-12-08T04:03:33.914Z,52.45
2022-12-08T04:06:36.966Z,52.04
2022-12-08T04:09:39.938Z,52.02
2022-12-08T04:12:44.014Z,51.74
2022-12-08T04:15:48.034Z,51.71
2022-12-08T04:18:52.339Z,51.72
2022-12-08T04:21:56.681Z,51.62
2022-12-08T04:25:00.602Z,51.22
2022-12-08T04:28:05.510Z,50.97
2022-12-08T04:31:10.169Z,50.15
2022-12-08T04:34:13.381Z,50.10
2022-12-08T04:37:17.520Z,49.89
2022-12-08T04:40:21.311Z,48.99
2022-12-08T04:43:25.054Z,49.14
2022-12-08T04:46:29.530Z,49.11
2022-12-08T04:49:32.799Z,49.06
2022-12-08T04:52:36.970Z,49.04
2022-12-08T04:55:42.464Z,49.00
2022-12-08T04:58:46.468Z,48.68
2022-12-08T05:01:49.559Z,48.55
2022-12-08T05:04:53.561Z,48.53
2022-12-08T05:07:57.217Z,48.73
2022-12-08T05:11:09.972Z,48.04
2022-12-08T05:14:14.351Z,47.26
2022-12-08T05:17:19.545Z,46.91
2022-12-08T05:20:23.411Z,46.46
2022-12-08T05:23:27.268Z,46.15
2022-12-08T05:26:30.677Z,46.29
2022-12-08T05:29:34.537Z,46.43
2022-12-08T05:32:37.945Z,45.85
2022-12-08T05:35:42.033Z,45.91
2022-12-08T05:38:46.143Z,45.63
2022-12-08T05:41:49.640Z,45.95
2022-12-08T05:44:54.055Z,45.73
2022-12-08T05:47:57.319Z,45.61
2022-12-08T05:51:00.977Z,45.90
2022-12-08T05:54:04.269Z,45.61
2022-12-08T05:57:07.721Z,46.38
2022-12-08T06:00:12.000Z,46.46
2022-12-08T06:03:18.102Z,47.36
2022-12-08T06:06:22.469Z,47.38
2022-12-08T06:09:26.585Z,47.22
2022-12-08T06:12:30.560Z,47.41
2022-12-08T06:15:36.627Z,47.90
2022-12-08T06:18:39.811Z,47.97
2022-12-08T06:21:45.184Z,48.27
2022-12-08T06:24:49.577Z,48.54
2022-12-08T06:27:53.797Z,48.93
2022-12-08T06:30:58.100Z,49.16
2022-12-08T06:34:02.308Z,49.21
2022-12-08T06:37:05.939Z,49.25
2022-12-08T06:40:11.151Z,49.72
2022-12-08T06:43:15.155Z,49.92
2022-12-08T06:46:21.074Z,49.85
2022-12-08T06:49:24.983Z,50.01
2022-12-08T06:52:28.992Z,50.16
2022-12-08T06:58:57.351Z,50.36
2022-12-08T07:02:00.999Z,50.62
2022-12-08T07:05:04.879Z,50.70
2022-12-08T07:08:09.699Z,51.05
2022-12-08T07:11:20.975Z,50.98
2022-12-08T07:14:28.267Z,51.38
2022-12-08T07:17:31.635Z,51.87
2022-12-08T07:20:34.891Z,51.84
2022-12-08T07:23:41.447Z,52.18
2022-12-08T07:26:45.379Z,52.65
2022-12-08T07:29:48.712Z,52.82
2022-12-08T07:32:52.470Z,53.22
2022-12-08T07:36:04.420Z,53.24
2022-12-08T07:39:10.290Z,56.05
2022-12-08T07:42:14.132Z,56.55
2022-12-08T07:45:25.694Z,54.72
2022-12-08T07:48:33.737Z,53.99
2022-12-08T07:51:37.281Z,54.20
2022-12-08T07:54:42.992Z,55.61
2022-12-08T07:57:45.982Z,53.21
2022-12-08T08:00:49.180Z,53.60
2022-12-08T08:03:52.674Z,53.41
2022-12-08T08:06:57.354Z,53.63
2022-12-08T08:10:00.691Z,54.16
2022-12-08T08:13:04.697Z,54.80
2022-12-08T08:16:10.637Z,54.89
2022-12-08T08:19:13.819Z,55.05
2022-12-08T08:22:17.179Z,55.09
2022-12-08T08:25:26.659Z,55.60
2022-12-08T08:28:32.388Z,55.51
2022-12-08T08:31:35.706Z,55.81
2022-12-08T08:34:38.965Z,55.89
2022-12-08T08:37:49.112Z,55.94
2022-12-08T08:40:52.909Z,56.05
2022-12-08T08:43:56.342Z,56.03
2022-12-08T08:46:59.635Z,56.29
2022-12-08T08:50:04.555Z,56.36
2022-12-08T08:53:08.431Z,56.79
2022-12-08T08:56:14.579Z,56.85
2022-12-08T08:59:20.123Z,57.17
2022-12-08T09:02:26.665Z,57.31
2022-12-08T09:05:30.655Z,57.41
2022-12-08T09:08:36.737Z,57.36
2022-12-08T09:11:42.349Z,57.26
2022-12-08T09:14:46.745Z,57.74
2022-12-08T09:17:50.076Z,57.90
2022-12-08T09:20:54.592Z,58.19
2022-12-08T09:24:00.511Z,57.75
2022-12-08T09:27:03.606Z,57.69
2022-12-08T09:30:08.146Z,57.67
2022-12-08T09:33:11.757Z,61.63
2022-12-08T09:36:15.561Z,60.94
2022-12-08T09:39:21.429Z,60.39
2022-12-08T09:42:41.551Z,59.97
2022-12-08T09:45:48.587Z,60.42
2022-12-08T09:48:58.035Z,59.75
2022-12-08T09:52:04.511Z,59.41
2022-12-08T09:55:24.458Z,59.40
2022-12-08T09:59:05.326Z,58.39
2022-12-08T10:02:31.301Z,58.56
2022-12-08T10:05:40.949Z,58.63
2022-12-08T10:08:59.567Z,58.75
2022-12-08T10:12:47.872Z,59.25
2022-12-08T10:16:01.773Z,59.59
2022-12-08T10:19:24.819Z,59.73
2022-12-08T10:22:37.602Z,60.09
2022-12-08T10:25:49.084Z,60.22
2022-12-08T10:28:52.831Z,60.30
2022-12-08T10:32:00.537Z,59.91
2022-12-08T10:35:16.070Z,59.78
2022-12-08T10:38:35.216Z,59.71
2022-12-08T10:41:39.166Z,59.69
2022-12-08T10:45:16.706Z,59.50
2022-12-08T10:48:25.262Z,59.48
2022-12-08T10:51:39.720Z,59.48
2022-12-08T10:54:44.067Z,59.37
2022-12-08T10:57:51.467Z,59.18
2022-12-08T11:01:02.300Z,59.09
2022-12-08T11:04:20.040Z,59.14
2022-12-08T11:07:24.591Z,59.18
2022-12-08T11:10:43.150Z,59.49
2022-12-08T11:13:48.884Z,59.54
2022-12-08T11:16:55.369Z,59.75
2022-12-08T11:20:23.472Z,59.68
2022-12-08T11:23:28.861Z,59.70
2022-12-08T11:26:36.083Z,59.68
2022-12-08T11:29:42.612Z,59.60
2022-12-08T11:32:53.931Z,59.79
2022-12-08T11:36:10.312Z,60.13
2022-12-08T11:39:15.016Z,60.35
2022-12-08T11:42:24.011Z,60.38
2022-12-08T11:45:33.003Z,60.33
2022-12-08T11:48:38.603Z,60.29
2022-12-08T11:51:54.557Z,60.10
2022-12-08T11:55:06.312Z,60.02
2022-12-08T11:58:22.687Z,59.88
2022-12-08T12:01:28.825Z,59.91
2022-12-08T12:04:41.794Z,59.77
2022-12-08T12:08:03.725Z,59.88
2022-12-08T12:11:10.338Z,60.08
2022-12-08T12:14:28.919Z,60.15
2022-12-08T12:17:50.402Z,60.35
2022-12-08T12:20:55.103Z,60.40
2022-12-08T12:24:06.035Z,60.55
2022-12-08T12:27:40.179Z,60.47
2022-12-08T12:31:20.219Z,60.35
2022-12-08T12:34:27.677Z,60.26
2022-12-08T12:37:43.510Z,60.20
2022-12-08T12:40:47.276Z,60.04
2022-12-08T12:44:12.988Z,60.03
2022-12-08T12:47:46.894Z,60.01
2022-12-08T12:50:53.605Z,59.99
2022-12-08T12:54:30.133Z,59.95
2022-12-08T12:57:39.517Z,59.86
2022-12-08T13:00:43.209Z,59.82
2022-12-08T13:03:50.810Z,59.96
2022-12-08T13:06:54.587Z,59.98
2022-12-08T13:10:05.343Z,59.89
2022-12-08T13:13:16.840Z,59.89
2022-12-08T13:16:27.565Z,59.91
2022-12-08T13:19:33.654Z,60.03
2022-12-08T13:22:55.998Z,60.33
2022-12-08T13:26:19.039Z,60.40
2022-12-08T13:29:27.218Z,60.60
2022-12-08T13:32:39.086Z,60.62
2022-12-08T13:36:03.009Z,60.64
2022-12-08T13:39:06.604Z,60.73
2022-12-08T13:42:43.882Z,60.91
2022-12-08T13:59:45.475Z,61.62
2022-12-08T14:02:51.431Z,61.77
2022-12-08T14:06:12.178Z,61.96
2022-12-08T14:09:25.610Z,62.15
2022-12-08T14:12:29.188Z,62.13
2022-12-08T14:15:38.576Z,62.30
2022-12-08T14:18:41.578Z,62.39
2022-12-08T14:22:09.989Z,62.39
2022-12-08T14:25:16.487Z,62.27
2022-12-08T14:28:22.641Z,62.63
2022-12-08T14:31:28.117Z,62.65
2022-12-08T14:34:41.271Z,62.66
2022-12-08T14:37:47.847Z,62.58
2022-12-08T14:41:03.615Z,62.56
2022-12-08T14:44:24.967Z,62.50
2022-12-08T14:47:34.039Z,62.51
2022-12-08T14:50:55.309Z,62.66
2022-12-08T14:54:00.531Z,62.63
2022-12-08T14:57:04.447Z,62.44
2022-12-08T15:00:12.134Z,62.39
2022-12-08T15:03:17.261Z,62.27
2022-12-08T15:06:23.952Z,62.17
2022-12-08T15:09:32.168Z,62.29
2022-12-08T15:12:35.630Z,62.27
2022-12-08T15:16:25.011Z,62.39
2022-12-08T15:19:33.940Z,62.39
2022-12-08T15:22:37.008Z,62.51
2022-12-08T15:25:41.099Z,62.61
2022-12-08T15:28:47.690Z,62.64
2022-12-08T15:31:53.784Z,62.78
2022-12-08T15:34:56.910Z,62.65
2022-12-08T15:38:00.259Z,62.32
2022-12-08T15:41:04.257Z,62.48
2022-12-08T15:44:07.324Z,62.51
2022-12-08T15:47:20.500Z,62.47
2022-12-08T15:50:24.548Z,62.65
2022-12-08T15:53:28.353Z,62.81
2022-12-08T15:56:34.367Z,63.15
2022-12-08T15:59:41.029Z,63.37
2022-12-08T16:03:18.350Z,63.57
2022-12-08T16:09:43.013Z,63.57
2022-12-08T16:16:31.084Z,63.30
2022-12-08T16:19:34.160Z,63.19
2022-12-08T16:22:59.575Z,63.01
2022-12-08T16:29:24.965Z,62.69
2022-12-08T16:32:29.322Z,62.53
2022-12-08T16:35:33.220Z,62.49
2022-12-08T16:38:46.199Z,62.60
2022-12-08T16:42:08.676Z,62.78
2022-12-08T16:45:27.717Z,62.94
2022-12-08T16:48:31.917Z,63.05
2022-12-08T16:51:35.811Z,63.12
2022-12-08T16:54:40.161Z,63.35
2022-12-08T16:57:44.793Z,63.38
2022-12-08T17:00:48.943Z,63.36
2022-12-08T17:04:22.431Z,63.38
2022-12-08T17:07:17.354Z,63.66
2022-12-08T17:10:23.733Z,63.76
2022-12-08T17:13:27.659Z,63.65
2022-12-08T17:16:31.465Z,63.47
2022-12-08T17:19:35.448Z,63.43
2022-12-08T17:22:39.510Z,63.43
2022-12-08T17:25:43.502Z,63.35
2022-12-08T17:29:02.481Z,63.34
2022-12-08T17:32:06.951Z,63.18
2022-12-08T17:35:10.988Z,63.03
2022-12-08T17:38:14.992Z,63.17
2022-12-08T17:41:18.573Z,63.08
2022-12-08T17:44:22.805Z,62.93
2022-12-08T17:47:26.280Z,62.85
2022-12-08T17:50:29.879Z,62.84
2022-12-08T17:53:37.358Z,62.67
2022-12-08T17:56:41.498Z,62.61
2022-12-08T17:59:45.188Z,62.61
2022-12-08T18:02:49.115Z,62.53
2022-12-08T18:05:52.830Z,62.61
2022-12-08T18:08:57.350Z,62.78
2022-12-08T18:12:00.791Z,62.87
2022-12-08T18:15:06.107Z,63.19
2022-12-08T18:18:09.562Z,63.16
2022-12-08T18:21:17.366Z,63.44
2022-12-08T18:24:25.092Z,63.56
2022-12-08T18:27:28.595Z,63.62
2022-12-08T18:30:32.531Z,63.62
2022-12-08T18:33:36.444Z,63.61
2022-12-08T18:36:40.234Z,63.68
2022-12-08T18:39:43.493Z,63.86
2022-12-08T18:42:47.539Z,63.73
2022-12-08T18:45:51.267Z,63.75
2022-12-08T18:48:55.076Z,63.72
2022-12-08T18:51:58.075Z,63.74
2022-12-08T18:55:07.108Z,63.90
2022-12-08T18:58:11.544Z,63.97
2022-12-08T19:01:15.980Z,63.99
2022-12-08T19:04:28.431Z,64.15
2022-12-08T19:07:32.996Z,64.09
2022-12-08T19:10:41.261Z,64.21
2022-12-08T19:13:44.570Z,63.55
2022-12-08T19:16:47.493Z,63.49
2022-12-08T19:19:51.079Z,63.40
2022-12-08T19:22:54.864Z,63.28
2022-12-08T19:25:58.053Z,63.30
2022-12-08T19:29:01.152Z,63.36
2022-12-08T19:32:05.659Z,63.27
2022-12-08T19:35:09.615Z,63.28
2022-12-08T19:38:14.152Z,63.07
2022-12-08T19:41:36.200Z,62.84
2022-12-08T19:44:55.028Z,62.84
2022-12-08T19:47:58.724Z,62.61
2022-12-08T19:51:03.221Z,62.77
2022-12-08T19:54:06.263Z,62.83
2022-12-08T19:57:11.585Z,62.89
2022-12-08T20:00:15.732Z,62.73
2022-12-08T20:03:21.632Z,62.72
2022-12-08T20:06:27.522Z,62.75
2022-12-08T20:09:31.490Z,62.81
2022-12-08T20:12:35.253Z,62.70
2022-12-08T20:15:38.630Z,62.60
2022-12-08T20:18:42.865Z,62.42
2022-12-08T20:21:46.614Z,62.51
2022-12-08T20:24:57.212Z,62.38
2022-12-08T20:28:03.409Z,62.46
2022-12-08T20:31:07.200Z,62.60
2022-12-08T20:34:19.531Z,62.63
2022-12-08T20:37:22.552Z,62.51
2022-12-08T20:40:26.592Z,62.42
2022-12-08T20:43:30.401Z,62.21
2022-12-08T20:46:33.681Z,62.15
2022-12-08T20:49:37.320Z,61.85
2022-12-08T20:52:44.304Z,61.72
2022-12-08T20:55:47.441Z,61.67
2022-12-08T20:58:54.843Z,61.47
2022-12-08T21:01:58.679Z,61.46
2022-12-08T21:05:02.759Z,61.39
2022-12-08T21:08:07.936Z,61.40
2022-12-08T21:11:11.769Z,61.40
2022-12-08T21:14:15.664Z,61.59
2022-12-08T21:17:19.661Z,61.59
2022-12-08T21:20:23.663Z,61.61
2022-12-08T21:23:27.551Z,61.76
2022-12-08T21:26:31.228Z,62.09
2022-12-08T21:29:34.624Z,62.62
2022-12-08T21:32:39.740Z,63.12
2022-12-08T21:35:43.227Z,63.36
2022-12-08T21:38:47.617Z,63.45
2022-12-08T21:42:09.496Z,63.39
2022-12-08T21:45:18.776Z,63.52
2022-12-08T21:48:22.887Z,63.53
2022-12-08T21:51:26.130Z,63.31
2022-12-08T21:54:29.583Z,63.26
2022-12-08T21:57:32.713Z,63.22
2022-12-08T22:00:36.812Z,63.34
2022-12-08T22:03:41.471Z,63.13
2022-12-08T22:06:45.590Z,63.11
2022-12-08T22:09:48.814Z,63.20
2022-12-08T22:12:52.385Z,63.19
2022-12-08T22:16:07.097Z,62.94
2022-12-08T22:19:12.064Z,62.72
2022-12-08T22:22:15.502Z,62.42
2022-12-08T22:25:18.794Z,62.24
2022-12-08T22:28:21.866Z,61.76
2022-12-08T22:31:25.253Z,61.70
2022-12-08T22:34:29.253Z,61.59
2022-12-08T22:37:33.200Z,61.33
2022-12-08T22:40:40.490Z,61.36
2022-12-08T22:43:44.426Z,61.27
2022-12-08T22:46:47.492Z,61.25
2022-12-08T22:49:51.835Z,61.20
2022-12-08T22:52:55.466Z,61.27
2022-12-08T22:55:58.408Z,61.11
2022-12-08T22:59:02.595Z,61.30
2022-12-08T23:02:06.043Z,61.32
2022-12-08T23:05:10.884Z,61.31
2022-12-08T23:08:17.100Z,61.33
2022-12-08T23:11:21.871Z,61.37
2022-12-08T23:14:26.430Z,61.44
2022-12-08T23:17:30.181Z,61.57
2022-12-08T23:20:35.292Z,61.63
2022-12-08T23:23:39.177Z,61.27
2022-12-08T23:26:44.337Z,61.19
2022-12-08T23:29:47.645Z,61.25
2022-12-08T23:32:51.993Z,61.22
2022-12-08T23:35:59.223Z,61.35
2022-12-08T23:39:03.292Z,61.20
2022-12-08T23:42:06.985Z,61.13
2022-12-08T23:45:11.572Z,61.17
2022-12-08T23:48:15.476Z,61.25
2022-12-08T23:51:20.477Z,61.12
2022-12-08T23:54:23.565Z,60.96
2022-12-08T23:57:27.453Z,60.98
